Time;durP1;ratioP1;P1;durP2;ratioP2;P2;SDS_P1;SDS_P2;PMS_P1;PMS_P2;Temp;Humidity;BMP_temperature;BMP_pressure;BME280_temperature;BME280_humidity;BME280_pressure;Samples;Min_cycle;Max_cycle;Signal;HPM_P1;HPM_P2
2023/12/22 00:00:52;;;;;;;7.40;1.77;;;;;20.90;98896.00;;;;2072622;28;21315;-68
2023/12/22 00:01:52;;;;;;;8.77;1.93;;;;;20.90;98905.00;;;;2075420;28;20715;-68
2023/12/22 00:02:53;;;;;;;4.13;1.70;;;;;20.90;98965.00;;;;2069805;28;20226;-68
2023/12/22 00:03:53;;;;;;;5.70;1.83;;;;;20.90;98955.00;;;;2064225;28;20672;-68
2023/12/22 00:04:53;;;;;;;3.13;1.53;;;;;20.90;98963.00;;;;2079032;28;20630;-68
2023/12/22 00:05:53;;;;;;;4.93;1.60;;;;;20.90;98968.00;;;;2070161;28;20221;-68
2023/12/22 00:06:54;;;;;;;7.90;1.70;;;;;20.90;98959.00;;;;2073115;28;20322;-68
2023/12/22 00:07:55;;;;;;;4.07;1.90;;;;;20.80;98960.00;;;;2085111;28;20243;-68
2023/12/22 00:08:55;;;;;;;4.00;1.40;;;;;20.80;98954.00;;;;2073654;28;20223;-68
2023/12/22 00:09:56;;;;;;;11.13;1.77;;;;;20.80;98949.00;;;;2079965;28;20367;-68
2023/12/22 00:10:56;;;;;;;4.90;1.87;;;;;20.80;98958.00;;;;2074037;28;20227;-68
2023/12/22 00:11:56;;;;;;;4.10;1.33;;;;;20.80;98956.00;;;;2087428;28;20229;-68
2023/12/22 00:12:57;;;;;;;12.87;1.70;;;;;20.80;98960.00;;;;2078404;28;20222;-68
2023/12/22 00:13:57;;;;;;;2.90;1.20;;;;;20.80;98962.00;;;;2077704;28;20249;-68
2023/12/22 00:14:57;;;;;;;3.17;1.20;;;;;20.80;98962.00;;;;2082172;28;20239;-68
2023/12/22 00:15:58;;;;;;;4.60;1.60;;;;;20.80;98964.00;;;;2072268;28;20221;-68
2023/12/22 00:16:58;;;;;;;5.20;1.47;;;;;20.80;98966.00;;;;2079186;28;20684;-68
2023/12/22 00:17:58;;;;;;;2.73;1.40;;;;;20.80;98968.00;;;;2077278;28;20698;-68
2023/12/22 00:18:59;;;;;;;4.03;1.50;;;;;20.80;98971.00;;;;2080039;28;20227;-68
2023/12/22 00:20:02;;;;;;;3.43;1.33;;;;;20.80;98967.00;;;;2086477;28;20205;-68
2023/12/22 00:21:03;;;;;;;5.10;1.48;;;;;20.80;98966.00;;;;2074574;28;20599;-69
2023/12/22 00:22:03;;;;;;;4.00;1.40;;;;;20.80;98962.00;;;;2068887;28;20304;-68
2023/12/22 00:23:04;;;;;;;3.10;1.40;;;;;20.80;98965.00;;;;2059315;28;20592;-68
2023/12/22 00:24:04;;;;;;;4.40;1.60;;;;;20.80;98959.00;;;;2080521;28;20229;-68
2023/12/22 00:25:05;;;;;;;2.80;1.20;;;;;20.80;98976.00;;;;2081025;28;20234;-68
2023/12/22 00:26:05;;;;;;;4.87;1.50;;;;;20.80;98983.00;;;;2072984;28;20240;-68
2023/12/22 00:27:06;;;;;;;3.63;1.30;;;;;20.80;98977.00;;;;2088140;28;20240;-68
2023/12/22 00:28:06;;;;;;;3.13;1.47;;;;;20.80;98983.00;;;;2076253;28;20250;-68
2023/12/22 00:29:06;;;;;;;3.30;1.30;;;;;20.80;98977.00;;;;2084725;28;20267;-68
2023/12/22 00:30:07;;;;;;;4.73;1.63;;;;;20.80;98978.00;;;;2080953;28;20254;-68
2023/12/22 00:31:08;;;;;;;4.00;1.70;;;;;20.80;98980.00;;;;2070295;28;20217;-68
2023/12/22 00:32:09;;;;;;;3.47;1.30;;;;;20.80;98989.00;;;;2072242;28;20478;-68
2023/12/22 00:33:09;;;;;;;5.28;2.00;;;;;20.80;98984.00;;;;2080487;28;20213;-68
2023/12/22 00:34:10;;;;;;;4.87;1.47;;;;;20.80;98989.00;;;;2079558;28;20771;-68
2023/12/22 00:35:10;;;;;;;7.00;1.23;;;;;20.80;98992.00;;;;2079822;28;20631;-68
2023/12/22 00:36:10;;;;;;;4.23;1.70;;;;;20.60;98965.00;;;;2068698;28;20685;-68
2023/12/22 00:37:12;;;;;;;4.67;1.23;;;;;20.80;99011.00;;;;2071685;28;20768;-68
2023/12/22 00:38:12;;;;;;;3.03;1.05;;;;;20.80;99005.00;;;;2077365;28;20209;-68
2023/12/22 00:39:12;;;;;;;3.37;1.30;;;;;20.80;99019.00;;;;2080090;28;20258;-68
2023/12/22 00:40:13;;;;;;;2.83;1.20;;;;;20.80;99014.00;;;;2073423;28;20202;-68
2023/12/22 00:41:13;;;;;;;2.90;1.23;;;;;20.80;99005.00;;;;2069925;28;20307;-68
2023/12/22 00:42:13;;;;;;;3.83;1.43;;;;;20.70;99004.00;;;;2072420;28;20218;-68
2023/12/22 00:43:14;;;;;;;3.47;1.17;;;;;20.80;98996.00;;;;2081863;28;20213;-68
2023/12/22 00:44:14;;;;;;;4.00;1.30;;;;;20.70;99008.00;;;;2079912;28;20206;-68
2023/12/22 00:45:14;;;;;;;3.13;1.30;;;;;20.70;99004.00;;;;2073560;28;20206;-68
2023/12/22 00:46:15;;;;;;;4.43;1.23;;;;;20.70;98939.00;;;;2076179;28;20262;-68
2023/12/22 00:47:15;;;;;;;6.93;1.40;;;;;20.80;99009.00;;;;2077814;28;20252;-68
2023/12/22 00:48:15;;;;;;;3.03;1.37;;;;;20.80;99004.00;;;;2082588;28;20700;-68
2023/12/22 00:49:16;;;;;;;3.40;1.50;;;;;20.70;99002.00;;;;2077533;28;20217;-68
2023/12/22 00:50:16;;;;;;;4.77;1.30;;;;;20.70;98995.00;;;;2083038;28;20209;-68
2023/12/22 00:51:16;;;;;;;3.20;1.30;;;;;20.80;98999.00;;;;2071048;28;20260;-68
2023/12/22 00:52:17;;;;;;;3.50;1.20;;;;;20.80;99019.00;;;;2081558;28;20673;-68
2023/12/22 00:53:17;;;;;;;4.30;1.60;;;;;20.80;99015.00;;;;2069737;28;20213;-68
2023/12/22 00:54:17;;;;;;;2.80;1.23;;;;;20.70;99003.00;;;;2063888;28;20241;-68
2023/12/22 00:55:18;;;;;;;3.27;1.27;;;;;20.70;99005.00;;;;2083825;28;20225;-68
2023/12/22 00:56:18;;;;;;;6.30;1.30;;;;;20.80;99011.00;;;;2069869;28;20210;-68
2023/12/22 00:57:18;;;;;;;3.43;1.17;;;;;20.80;99019.00;;;;2074910;28;20218;-68
2023/12/22 00:58:19;;;;;;;3.73;1.50;;;;;20.80;99022.00;;;;2077525;28;20228;-68
2023/12/22 00:59:19;;;;;;;4.47;1.03;;;;;20.60;99022.00;;;;2079405;28;20214;-68
2023/12/22 01:00:19;;;;;;;3.33;0.97;;;;;20.80;99009.00;;;;2086014;28;20215;-68
2023/12/22 01:01:21;;;;;;;3.90;1.43;;;;;20.80;99023.00;;;;2070631;28;20209;-68
2023/12/22 01:02:21;;;;;;;4.90;1.40;;;;;20.80;99019.00;;;;2079933;28;20557;-68
2023/12/22 01:03:22;;;;;;;4.40;1.50;;;;;20.70;99013.00;;;;2080627;28;20217;-68
2023/12/22 01:04:22;;;;;;;5.73;2.10;;;;;20.70;99013.00;;;;2080806;28;20212;-68
2023/12/22 01:05:22;;;;;;;3.93;1.20;;;;;20.70;99013.00;;;;2079362;28;20201;-68
2023/12/22 01:06:23;;;;;;;3.53;1.23;;;;;20.70;99012.00;;;;2070647;28;20259;-68
2023/12/22 01:07:23;;;;;;;4.20;1.70;;;;;20.70;99018.00;;;;2077945;28;20217;-68
2023/12/22 01:08:23;;;;;;;4.90;1.33;;;;;20.70;99018.00;;;;2077525;28;20259;-68
2023/12/22 01:09:24;;;;;;;3.10;1.27;;;;;20.70;99019.00;;;;2080489;28;20221;-68
2023/12/22 01:10:24;;;;;;;3.37;1.10;;;;;20.70;99021.00;;;;2079677;28;20201;-68
2023/12/22 01:11:24;;;;;;;3.70;1.43;;;;;20.70;99015.00;;;;2070515;28;20241;-68
2023/12/22 01:12:25;;;;;;;5.30;1.53;;;;;20.70;99012.00;;;;2080319;28;20205;-67
2023/12/22 01:13:25;;;;;;;5.07;1.10;;;;;20.70;99022.00;;;;2083800;28;20226;-67
2023/12/22 01:14:25;;;;;;;5.53;1.37;;;;;20.70;99019.00;;;;2074356;28;20246;-67
2023/12/22 01:15:26;;;;;;;4.40;1.40;;;;;20.70;99028.00;;;;2080767;28;20275;-67
2023/12/22 01:16:26;;;;;;;3.63;1.00;;;;;20.70;99026.00;;;;2068196;28;20276;-67
2023/12/22 01:17:26;;;;;;;3.33;1.10;;;;;20.70;99019.00;;;;2074608;28;20209;-67
2023/12/22 01:18:29;;;;;;;3.23;1.20;;;;;20.70;99025.00;;;;2084045;28;20278;-67
2023/12/22 01:19:30;;;;;;;5.28;1.10;;;;;20.70;99020.00;;;;2077906;28;21143;-67
2023/12/22 01:20:30;;;;;;;6.70;1.33;;;;;20.70;99022.00;;;;2079986;28;20218;-67
2023/12/22 01:21:31;;;;;;;3.63;1.17;;;;;20.70;98951.00;;;;2067361;28;20246;-67
2023/12/22 01:22:32;;;;;;;3.80;1.37;;;;;20.70;99009.00;;;;2083949;28;20265;-67
2023/12/22 01:23:33;;;;;;;3.55;1.15;;;;;20.70;99010.00;;;;2088022;28;20228;-67
2023/12/22 01:24:33;;;;;;;3.90;1.33;;;;;20.70;99013.00;;;;2082229;28;20217;-67
2023/12/22 01:25:33;;;;;;;3.93;1.17;;;;;20.70;99016.00;;;;2075810;28;20230;-67
2023/12/22 01:26:34;;;;;;;2.90;1.20;;;;;20.70;99030.00;;;;2078941;28;20252;-67
2023/12/22 01:27:34;;;;;;;4.47;1.30;;;;;20.70;99021.00;;;;2079834;28;20225;-67
2023/12/22 01:28:34;;;;;;;5.50;1.20;;;;;20.70;99047.00;;;;2077157;28;20276;-67
2023/12/22 01:29:35;;;;;;;3.97;1.20;;;;;20.70;99073.00;;;;2084652;28;20252;-67
2023/12/22 01:30:35;;;;;;;3.07;1.10;;;;;20.70;99023.00;;;;2077976;28;20217;-67
2023/12/22 01:31:35;;;;;;;3.30;1.10;;;;;20.70;99049.00;;;;2080548;28;20224;-67
2023/12/22 01:32:36;;;;;;;3.23;1.30;;;;;20.70;99084.00;;;;2080509;28;20213;-67
2023/12/22 01:33:36;;;;;;;4.30;1.30;;;;;20.70;99073.00;;;;2077653;28;20229;-67
2023/12/22 01:34:37;;;;;;;2.43;0.93;;;;;20.70;99044.00;;;;2079636;28;20473;-67
2023/12/22 01:35:37;;;;;;;3.20;1.10;;;;;20.70;98982.00;;;;2062553;28;20234;-67
2023/12/22 01:36:37;;;;;;;2.70;0.80;;;;;20.60;99071.00;;;;2076472;28;20220;-67
2023/12/22 01:37:38;;;;;;;3.53;0.83;;;;;20.60;99042.00;;;;2078268;28;20241;-67
2023/12/22 01:38:38;;;;;;;2.13;0.80;;;;;20.70;99059.00;;;;2068343;28;20231;-67
2023/12/22 01:39:38;;;;;;;2.83;0.80;;;;;20.60;99080.00;;;;2071249;28;20229;-67
2023/12/22 01:40:39;;;;;;;6.43;1.67;;;;;20.60;99075.00;;;;2068113;28;20226;-67
2023/12/22 01:41:39;;;;;;;2.77;1.00;;;;;20.60;99081.00;;;;2078818;28;20233;-67
2023/12/22 01:42:40;;;;;;;2.40;1.00;;;;;20.60;99041.00;;;;2076434;28;20218;-67
2023/12/22 01:43:40;;;;;;;4.63;1.47;;;;;20.60;99052.00;;;;2078077;28;20768;-67
2023/12/22 01:44:40;;;;;;;3.00;1.10;;;;;20.60;99051.00;;;;2080177;28;20222;-67
2023/12/22 01:45:43;;;;;;;5.27;1.13;;;;;20.60;99049.00;;;;2069811;28;20205;-67
2023/12/22 01:46:43;;;;;;;2.15;0.70;;;;;20.60;99035.00;;;;2075650;28;20230;-67
2023/12/22 01:47:45;;;;;;;3.10;0.70;;;;;20.60;99076.00;;;;2068332;28;20226;-67
2023/12/22 01:48:45;;;;;;;2.65;0.73;;;;;20.60;99062.00;;;;2071493;28;20214;-67
2023/12/22 01:49:45;;;;;;;2.83;1.00;;;;;20.60;99007.00;;;;2066587;28;20297;-67
2023/12/22 01:50:46;;;;;;;2.93;0.80;;;;;20.60;99074.00;;;;2054008;28;20276;-67
2023/12/22 01:51:46;;;;;;;2.30;0.73;;;;;20.60;99038.00;;;;2066680;28;20218;-67
2023/12/22 01:52:46;;;;;;;2.70;0.77;;;;;20.60;99074.00;;;;2083588;28;20274;-67
2023/12/22 01:53:47;;;;;;;2.73;0.70;;;;;20.60;99062.00;;;;2079774;28;20222;-67
2023/12/22 01:54:47;;;;;;;2.90;1.00;;;;;20.60;99073.00;;;;2071669;28;20240;-67
2023/12/22 01:55:48;;;;;;;2.67;0.90;;;;;20.60;99010.00;;;;2073533;28;20244;-67
2023/12/22 01:56:48;;;;;;;2.43;1.00;;;;;20.60;99064.00;;;;2082783;28;20229;-67
2023/12/22 01:57:48;;;;;;;1.33;0.50;;;;;20.60;99077.00;;;;2080653;28;20225;-67
2023/12/22 01:58:50;;;;;;;3.67;1.00;;;;;20.60;99073.00;;;;2068648;28;20240;-67
2023/12/22 01:59:51;;;;;;;1.95;0.60;;;;;20.60;99101.00;;;;2074278;28;20222;-67
2023/12/22 02:00:52;;;;;;;3.00;0.80;;;;;20.60;99094.00;;;;2071452;28;20230;-67
2023/12/22 02:01:53;;;;;;;2.05;0.70;;;;;20.60;99090.00;;;;2074117;28;20218;-67
2023/12/22 02:02:53;;;;;;;2.70;0.80;;;;;20.50;99088.00;;;;2075253;28;20210;-67
2023/12/22 02:03:54;;;;;;;3.30;0.60;;;;;20.50;99115.00;;;;2085465;28;20224;-67
2023/12/22 02:04:54;;;;;;;2.37;0.97;;;;;20.60;99079.00;;;;2087777;28;20216;-67
2023/12/22 02:05:54;;;;;;;2.50;0.90;;;;;20.50;99065.00;;;;2065208;28;20225;-67
2023/12/22 02:06:55;;;;;;;3.30;1.10;;;;;20.50;99066.00;;;;2073662;28;20217;-67
2023/12/22 02:07:55;;;;;;;4.20;1.00;;;;;20.50;99065.00;;;;2077067;28;20218;-67
2023/12/22 02:08:56;;;;;;;3.63;0.93;;;;;20.50;99018.00;;;;2082436;28;20212;-67
2023/12/22 02:09:56;;;;;;;3.20;0.80;;;;;20.50;99075.00;;;;2072827;28;20233;-68
2023/12/22 02:10:56;;;;;;;2.23;0.90;;;;;20.50;99066.00;;;;2066561;28;20230;-68
2023/12/22 02:11:57;;;;;;;2.97;0.80;;;;;20.50;99067.00;;;;2080086;28;20559;-68
2023/12/22 02:12:57;;;;;;;3.33;0.60;;;;;20.60;99074.00;;;;2083470;28;20699;-68
2023/12/22 02:13:57;;;;;;;2.40;0.80;;;;;20.50;99056.00;;;;2082064;28;20689;-68
2023/12/22 02:14:58;;;;;;;1.87;0.80;;;;;20.50;99067.00;;;;2068159;28;20210;-68
2023/12/22 02:16:12;;;;;;;2.40;1.10;;;;;20.50;99076.00;;;;2053452;28;20230;-68
2023/12/22 02:17:22;;;;;;;2.15;0.80;;;;;20.50;99076.00;;;;2065148;28;20218;-68
2023/12/22 02:18:25;;;;;;;2.85;0.80;;;;;20.50;99062.00;;;;2075123;28;20225;-68
2023/12/22 02:19:43;;;;;;;2.78;0.82;;;;;20.50;99075.00;;;;2086908;28;20201;-68
2023/12/22 02:20:44;;;;;;;2.70;0.88;;;;;20.50;99059.00;;;;2066649;28;20217;-68
2023/12/22 02:22:03;;;;;;;2.63;0.70;;;;;20.50;99071.00;;;;2081094;28;20239;-68
2023/12/22 02:23:03;;;;;;;1.95;0.70;;;;;20.50;99078.00;;;;2084097;28;20216;-68
2023/12/22 02:24:05;;;;;;;2.60;1.10;;;;;20.50;99074.00;;;;2072892;28;20222;-68
2023/12/22 02:25:05;;;;;;;3.20;0.80;;;;;20.50;99074.00;;;;2080385;28;20215;-68
2023/12/22 02:26:08;;;;;;;3.67;0.90;;;;;20.20;99066.00;;;;2065515;28;20233;-68
2023/12/22 02:27:17;;;;;;;4.72;0.60;;;;;20.50;99075.00;;;;2078233;28;20221;-68
2023/12/22 02:28:18;;;;;;;3.53;0.85;;;;;20.50;98996.00;;;;2073322;28;20230;-68
2023/12/22 02:29:18;;;;;;;3.63;0.60;;;;;20.50;99080.00;;;;2073116;28;20297;-68
2023/12/22 02:30:25;;;;;;;3.70;0.80;;;;;20.50;99095.00;;;;2071711;28;20213;-68
2023/12/22 02:31:33;;;;;;;2.15;0.75;;;;;20.50;99089.00;;;;2054352;28;20215;-68
2023/12/22 02:32:36;;;;;;;3.25;1.17;;;;;20.50;99084.00;;;;2069118;28;20206;-68
2023/12/22 02:33:36;;;;;;;3.17;1.25;;;;;20.50;98980.00;;;;2061243;28;20231;-68
2023/12/22 02:34:37;;;;;;;2.80;0.60;;;;;20.40;99081.00;;;;2062495;28;20222;-68
2023/12/22 02:35:37;;;;;;;2.50;0.60;;;;;20.40;99093.00;;;;2069444;28;20205;-68
2023/12/22 02:36:37;;;;;;;3.80;1.20;;;;;20.50;99067.00;;;;2070835;28;20222;-68
2023/12/22 02:37:39;;;;;;;3.13;1.00;;;;;20.50;99021.00;;;;2055002;28;20311;-68
2023/12/22 02:38:39;;;;;;;3.05;1.15;;;;;20.50;99079.00;;;;2050935;28;20310;-68
2023/12/22 02:39:39;;;;;;;3.33;0.90;;;;;20.50;99066.00;;;;2059332;28;20219;-68
2023/12/22 02:40:39;;;;;;;2.70;0.70;;;;;20.50;99067.00;;;;2037093;28;20227;-68
2023/12/22 02:41:40;;;;;;;2.20;1.00;;;;;20.50;99067.00;;;;2054772;28;20243;-68
2023/12/22 02:42:40;;;;;;;3.00;0.60;;;;;20.50;99068.00;;;;2053973;28;20219;-68
2023/12/22 02:43:41;;;;;;;2.70;0.90;;;;;20.40;99066.00;;;;2055438;28;20223;-68
2023/12/22 02:44:41;;;;;;;3.33;1.07;;;;;20.40;99044.00;;;;2056300;28;20237;-68
2023/12/22 02:45:41;;;;;;;3.67;1.00;;;;;20.40;99033.00;;;;2060134;28;20787;-68
2023/12/22 02:46:43;;;;;;;1.97;0.80;;;;;20.40;99048.00;;;;2063006;28;20678;-68
2023/12/22 02:47:43;;;;;;;2.22;0.90;;;;;20.40;99053.00;;;;2063810;28;20237;-68
2023/12/22 02:48:44;;;;;;;4.00;1.03;;;;;20.40;99064.00;;;;2083312;28;20630;-68
2023/12/22 02:49:44;;;;;;;2.60;0.80;;;;;20.40;99048.00;;;;2079349;28;20213;-68
2023/12/22 02:50:44;;;;;;;2.83;0.70;;;;;20.40;99052.00;;;;2070335;28;20584;-68
2023/12/22 02:51:45;;;;;;;3.07;1.20;;;;;20.40;99042.00;;;;2075533;28;20577;-68
2023/12/22 02:52:45;;;;;;;1.70;0.67;;;;;20.40;99064.00;;;;2075392;28;20759;-68
2023/12/22 02:53:45;;;;;;;2.90;0.83;;;;;20.40;99029.00;;;;2079493;28;20221;-68
2023/12/22 02:54:47;;;;;;;2.70;0.93;;;;;20.40;99049.00;;;;2079912;28;20221;-68
2023/12/22 02:55:47;;;;;;;2.78;0.75;;;;;20.40;99037.00;;;;2075239;28;20228;-68
2023/12/22 02:56:47;;;;;;;3.57;0.80;;;;;20.40;99031.00;;;;2082834;28;20220;-68
2023/12/22 02:57:48;;;;;;;3.30;1.20;;;;;20.40;99028.00;;;;2078763;28;20248;-68
2023/12/22 02:58:48;;;;;;;2.27;0.70;;;;;20.40;99027.00;;;;2075255;28;20247;-68
2023/12/22 02:59:48;;;;;;;2.83;1.00;;;;;20.40;99033.00;;;;2070606;28;20215;-68
2023/12/22 03:00:49;;;;;;;2.33;0.63;;;;;20.40;99023.00;;;;2059987;28;20257;-68
2023/12/22 03:01:49;;;;;;;3.40;0.90;;;;;20.40;99040.00;;;;2075428;28;20522;-68
2023/12/22 03:02:49;;;;;;;2.53;1.10;;;;;20.40;99056.00;;;;2074430;28;20241;-68
2023/12/22 03:03:49;;;;;;;2.07;0.60;;;;;20.40;99062.00;;;;2076793;28;20221;-68
2023/12/22 03:04:50;;;;;;;4.03;1.07;;;;;20.40;99049.00;;;;2074765;28;20611;-68
2023/12/22 03:05:50;;;;;;;3.13;0.80;;;;;20.40;99051.00;;;;2068944;28;20622;-68
2023/12/22 03:06:51;;;;;;;3.47;1.10;;;;;20.40;99051.00;;;;2082940;28;20224;-68
2023/12/22 03:07:51;;;;;;;3.63;1.17;;;;;20.40;99036.00;;;;2077472;28;20252;-68
2023/12/22 03:08:51;;;;;;;2.63;0.90;;;;;20.40;99040.00;;;;2074207;28;20233;-68
2023/12/22 03:09:51;;;;;;;4.37;1.10;;;;;20.40;99053.00;;;;2074981;28;20241;-68
2023/12/22 03:10:52;;;;;;;3.20;0.70;;;;;20.40;99052.00;;;;2069997;28;20608;-68
2023/12/22 03:11:54;;;;;;;5.13;1.00;;;;;20.40;99055.00;;;;2074283;28;20640;-68
2023/12/22 03:12:54;;;;;;;5.00;0.90;;;;;20.30;99063.00;;;;2074661;28;20221;-68
2023/12/22 03:13:55;;;;;;;2.53;0.67;;;;;20.40;99062.00;;;;2079298;28;20232;-68
2023/12/22 03:14:55;;;;;;;2.83;1.00;;;;;20.30;99057.00;;;;2079314;28;20210;-68
2023/12/22 03:15:55;;;;;;;3.27;0.87;;;;;20.30;99049.00;;;;2072358;28;20271;-68
2023/12/22 03:16:56;;;;;;;3.20;1.23;;;;;20.30;99060.00;;;;2074055;28;20214;-68
2023/12/22 03:17:56;;;;;;;3.43;0.93;;;;;20.30;99039.00;;;;2082761;28;20208;-68
2023/12/22 03:18:57;;;;;;;5.20;1.07;;;;;20.30;99063.00;;;;2080221;28;20213;-68
2023/12/22 03:19:57;;;;;;;3.80;1.00;;;;;20.30;99071.00;;;;2080996;28;20216;-68
2023/12/22 03:20:57;;;;;;;3.57;1.00;;;;;20.30;99060.00;;;;2070017;28;20278;-68
2023/12/22 03:21:57;;;;;;;3.47;1.10;;;;;20.30;99071.00;;;;2074894;28;20290;-68
2023/12/22 03:22:58;;;;;;;2.33;0.80;;;;;20.30;99070.00;;;;2075773;28;20238;-68
2023/12/22 03:23:58;;;;;;;3.30;1.20;;;;;20.30;99059.00;;;;2076628;28;20236;-68
2023/12/22 03:24:58;;;;;;;3.13;1.00;;;;;20.30;99066.00;;;;2085096;28;20347;-68
2023/12/22 03:26:03;;;;;;;2.80;0.83;;;;;20.30;99063.00;;;;2071773;28;20224;-68
2023/12/22 03:27:03;;;;;;;2.90;0.77;;;;;20.30;99065.00;;;;2074731;28;20220;-68
2023/12/22 03:28:03;;;;;;;2.13;0.70;;;;;20.30;99044.00;;;;2080893;28;20229;-68
2023/12/22 03:29:05;;;;;;;3.53;1.10;;;;;20.30;99060.00;;;;2075532;28;20236;-68
2023/12/22 03:30:05;;;;;;;2.53;1.13;;;;;20.30;99043.00;;;;2072408;28;20213;-68
2023/12/22 03:31:07;;;;;;;3.50;1.03;;;;;20.30;99067.00;;;;2069404;28;20225;-68
2023/12/22 03:32:07;;;;;;;3.33;1.40;;;;;20.30;99070.00;;;;2075265;28;20444;-68
2023/12/22 03:33:08;;;;;;;5.23;1.30;;;;;20.30;99070.00;;;;2081191;28;20213;-68
2023/12/22 03:34:08;;;;;;;3.60;0.90;;;;;20.30;99076.00;;;;2079475;28;20267;-68
2023/12/22 03:35:08;;;;;;;2.57;1.00;;;;;20.30;99081.00;;;;2079517;28;20217;-68
2023/12/22 03:36:09;;;;;;;3.10;0.90;;;;;20.30;99081.00;;;;2068042;28;20247;-68
2023/12/22 03:37:09;;;;;;;2.87;1.17;;;;;20.30;99092.00;;;;2080680;28;20221;-68
2023/12/22 03:38:09;;;;;;;2.83;1.03;;;;;20.30;99057.00;;;;2074149;28;20210;-68
2023/12/22 03:39:09;;;;;;;4.07;1.17;;;;;20.30;99043.00;;;;2084936;28;20792;-68
2023/12/22 03:40:10;;;;;;;3.23;0.80;;;;;20.30;99035.00;;;;2077200;28;20700;-68
2023/12/22 03:41:11;;;;;;;2.53;1.00;;;;;20.30;99049.00;;;;2067472;28;20723;-68
2023/12/22 03:42:11;;;;;;;2.70;0.90;;;;;20.30;99057.00;;;;2081177;28;20719;-68
2023/12/22 03:43:11;;;;;;;3.20;1.00;;;;;20.30;99061.00;;;;2076887;28;20765;-68
2023/12/22 03:44:12;;;;;;;4.20;1.17;;;;;20.30;99052.00;;;;2081162;28;20221;-68
2023/12/22 03:45:12;;;;;;;5.63;1.37;;;;;20.30;99041.00;;;;2081184;28;20321;-68
2023/12/22 03:46:12;;;;;;;4.47;1.27;;;;;20.30;99057.00;;;;2070642;28;20590;-68
2023/12/22 03:47:15;;;;;;;4.33;1.00;;;;;20.30;99054.00;;;;2071385;28;20214;-68
2023/12/22 03:48:15;;;;;;;3.25;1.10;;;;;20.30;99061.00;;;;2083428;28;20235;-68
2023/12/22 03:49:17;;;;;;;4.20;1.20;;;;;20.30;99061.00;;;;2081001;28;20233;-68
2023/12/22 03:50:18;;;;;;;3.95;1.02;;;;;20.30;99056.00;;;;2081567;28;20289;-68
2023/12/22 03:51:18;;;;;;;2.53;0.82;;;;;20.20;99057.00;;;;2071645;28;20268;-68
2023/12/22 03:52:18;;;;;;;3.57;1.10;;;;;20.30;98997.00;;;;2080695;28;20645;-68
2023/12/22 03:53:19;;;;;;;2.60;1.10;;;;;20.30;99030.00;;;;2087721;28;20212;-68
2023/12/22 03:54:19;;;;;;;2.60;1.13;;;;;20.30;99060.00;;;;2080994;28;20609;-68
2023/12/22 03:55:20;;;;;;;3.53;1.13;;;;;20.30;99064.00;;;;2084909;28;20861;-68
2023/12/22 03:56:20;;;;;;;2.77;1.37;;;;;20.30;99064.00;;;;2070583;28;20221;-68
2023/12/22 03:57:20;;;;;;;5.10;1.40;;;;;20.30;99059.00;;;;2076039;28;20225;-68
2023/12/22 03:58:21;;;;;;;3.00;1.40;;;;;20.20;99070.00;;;;2077609;28;20228;-68
2023/12/22 03:59:21;;;;;;;3.60;1.20;;;;;20.20;99063.00;;;;2080319;28;20223;-68
2023/12/22 04:00:22;;;;;;;2.90;1.00;;;;;20.20;99074.00;;;;2081048;28;20574;-68
2023/12/22 04:01:22;;;;;;;3.50;1.30;;;;;20.20;99075.00;;;;2070038;28;20229;-68
2023/12/22 04:02:22;;;;;;;4.33;1.13;;;;;20.20;99071.00;;;;2077392;28;20220;-68
2023/12/22 04:03:22;;;;;;;3.90;1.20;;;;;20.20;99067.00;;;;2071596;28;20218;-68
2023/12/22 04:04:23;;;;;;;4.07;1.17;;;;;20.20;99061.00;;;;2074160;28;20214;-68
2023/12/22 04:05:23;;;;;;;3.47;1.20;;;;;20.30;99051.00;;;;2081120;28;20244;-68
2023/12/22 04:06:23;;;;;;;3.03;1.10;;;;;20.20;99047.00;;;;2071384;28;20696;-68
2023/12/22 04:07:24;;;;;;;2.00;0.83;;;;;20.20;99053.00;;;;2081274;28;20716;-68
2023/12/22 04:08:24;;;;;;;4.67;1.43;;;;;20.20;99059.00;;;;2079830;28;20217;-68
2023/12/22 04:09:24;;;;;;;2.73;0.93;;;;;20.20;99063.00;;;;2074179;28;20245;-68
2023/12/22 04:10:25;;;;;;;3.87;1.50;;;;;20.20;99066.00;;;;2081107;28;20216;-68
2023/12/22 04:11:25;;;;;;;3.47;1.10;;;;;20.20;99072.00;;;;2069792;28;20297;-68
2023/12/22 04:12:25;;;;;;;4.83;1.30;;;;;20.20;99070.00;;;;2074564;28;20257;-68
2023/12/22 04:13:26;;;;;;;3.80;1.80;;;;;20.20;99072.00;;;;2087919;28;20220;-68
2023/12/22 04:14:26;;;;;;;3.70;1.30;;;;;20.20;99080.00;;;;2080744;28;20268;-68
2023/12/22 04:15:26;;;;;;;3.43;1.37;;;;;20.20;99085.00;;;;2085320;28;20208;-68
2023/12/22 04:16:27;;;;;;;3.40;1.37;;;;;20.20;99088.00;;;;2077944;28;20205;-68
2023/12/22 04:17:27;;;;;;;3.50;1.00;;;;;20.20;99086.00;;;;2077289;28;20218;-68
2023/12/22 04:18:27;;;;;;;3.53;1.33;;;;;20.20;99082.00;;;;2071124;28;20639;-68
2023/12/22 04:19:28;;;;;;;3.83;1.43;;;;;20.20;99076.00;;;;2073261;28;20862;-68
2023/12/22 04:20:28;;;;;;;3.13;1.00;;;;;20.20;99059.00;;;;2079392;28;20614;-68
2023/12/22 04:21:28;;;;;;;3.27;1.10;;;;;20.20;99079.00;;;;2065283;28;20685;-68
2023/12/22 04:22:29;;;;;;;4.17;1.40;;;;;20.20;99065.00;;;;2083454;28;20500;-68
2023/12/22 04:23:29;;;;;;;3.90;1.67;;;;;20.20;99063.00;;;;2078979;28;20218;-68
2023/12/22 04:24:30;;;;;;;3.83;1.27;;;;;20.20;99059.00;;;;2076625;28;20476;-68
2023/12/22 04:25:30;;;;;;;3.97;1.10;;;;;20.20;99062.00;;;;2078750;28;20210;-68
2023/12/22 04:26:30;;;;;;;3.83;1.37;;;;;20.20;99043.00;;;;2063181;28;20214;-68
2023/12/22 04:27:31;;;;;;;3.50;0.90;;;;;20.20;99025.00;;;;2073266;28;20220;-68
2023/12/22 04:28:31;;;;;;;3.77;1.10;;;;;20.20;99053.00;;;;2086376;28;20213;-68
2023/12/22 04:29:32;;;;;;;3.80;1.33;;;;;20.20;99058.00;;;;2084472;28;20207;-68
2023/12/22 04:30:32;;;;;;;3.50;1.30;;;;;20.20;99065.00;;;;2070044;28;20218;-68
2023/12/22 04:31:32;;;;;;;4.13;1.33;;;;;20.20;99073.00;;;;2076803;28;20221;-68
2023/12/22 04:32:32;;;;;;;2.87;1.40;;;;;20.20;99076.00;;;;2086188;28;20220;-68
2023/12/22 04:33:33;;;;;;;5.83;0.97;;;;;20.20;99076.00;;;;2078507;28;20210;-68
2023/12/22 04:34:33;;;;;;;3.80;1.33;;;;;20.20;99091.00;;;;2079812;28;20209;-68
2023/12/22 04:35:33;;;;;;;5.23;1.20;;;;;20.20;99088.00;;;;2069086;28;20253;-68
2023/12/22 04:36:35;;;;;;;3.43;1.07;;;;;20.20;99091.00;;;;2068979;28;20289;-68
2023/12/22 04:37:35;;;;;;;3.75;1.10;;;;;20.20;99080.00;;;;2068886;28;20222;-68
2023/12/22 04:38:35;;;;;;;3.60;1.07;;;;;20.20;99091.00;;;;2073439;28;20214;-68
2023/12/22 04:39:36;;;;;;;3.50;1.53;;;;;20.20;99096.00;;;;2074047;28;20208;-68
2023/12/22 04:40:36;;;;;;;1.67;0.70;;;;;20.20;99089.00;;;;2065716;28;20193;-68
2023/12/22 04:41:36;;;;;;;4.07;1.00;;;;;20.20;99113.00;;;;2080377;28;20243;-68
2023/12/22 04:42:37;;;;;;;4.73;1.23;;;;;20.20;99124.00;;;;2077050;28;20199;-68
2023/12/22 04:43:37;;;;;;;3.50;1.27;;;;;20.20;99116.00;;;;2081646;28;20359;-68
2023/12/22 04:44:37;;;;;;;3.87;1.30;;;;;20.20;99113.00;;;;2082851;28;20980;-68
2023/12/22 04:45:37;;;;;;;4.60;1.27;;;;;20.20;99106.00;;;;2071160;28;20677;-68
2023/12/22 04:46:38;;;;;;;2.73;0.90;;;;;20.20;99113.00;;;;2077757;28;20955;-68
2023/12/22 04:47:38;;;;;;;5.17;1.33;;;;;19.90;99121.00;;;;2073249;28;20218;-68
2023/12/22 04:48:39;;;;;;;4.10;1.00;;;;;20.20;99114.00;;;;2075155;28;20267;-68
2023/12/22 04:49:39;;;;;;;4.23;1.00;;;;;20.20;99122.00;;;;2076740;28;20597;-68
2023/12/22 04:50:40;;;;;;;3.90;1.20;;;;;20.20;99143.00;;;;2069190;28;20244;-68
2023/12/22 04:51:40;;;;;;;3.17;1.10;;;;;20.20;99147.00;;;;2077494;28;20198;-68
2023/12/22 04:52:41;;;;;;;4.77;1.20;;;;;20.20;99147.00;;;;2076004;28;20205;-68
2023/12/22 04:53:41;;;;;;;3.20;1.10;;;;;20.20;99137.00;;;;2078191;28;20280;-68
2023/12/22 04:54:41;;;;;;;2.70;0.90;;;;;20.20;99111.00;;;;2077141;28;20207;-67
2023/12/22 04:55:42;;;;;;;3.60;1.13;;;;;20.20;99104.00;;;;2072401;28;20240;-67
2023/12/22 04:56:42;;;;;;;2.93;1.27;;;;;20.20;99123.00;;;;2077241;28;20215;-67
2023/12/22 04:57:42;;;;;;;4.17;1.20;;;;;20.10;99120.00;;;;2080756;28;20201;-67
2023/12/22 04:58:43;;;;;;;2.50;1.03;;;;;20.20;99125.00;;;;2085364;28;20206;-67
2023/12/22 04:59:43;;;;;;;3.10;1.07;;;;;20.10;99119.00;;;;2080221;28;20205;-67
2023/12/22 05:00:43;;;;;;;3.50;1.30;;;;;20.10;99115.00;;;;2070317;28;20212;-67
2023/12/22 05:01:45;;;;;;;4.30;1.30;;;;;20.10;99121.00;;;;2080846;28;20205;-67
2023/12/22 05:02:45;;;;;;;3.42;1.33;;;;;20.20;99129.00;;;;2081557;28;20678;-67
2023/12/22 05:03:46;;;;;;;3.13;1.27;;;;;20.10;99131.00;;;;2080643;28;20213;-67
2023/12/22 05:04:46;;;;;;;4.90;1.60;;;;;20.10;99135.00;;;;2076014;28;20206;-67